KZR721 UAAA-ZWWW
Flight info
| Callsign | KZR721 |
|---|---|
| Flight time | 1h 36m |
| Altitude | 35000 |
| Route | PIGAL1A PIGAL M610 RULAD/K0828S1065 A343 POSOT B215 EPDAG EPDAG9Z |
| Aircraft | A321/M-L/S |
Departure
| Time | 2026-04-23 13:05 |
|---|---|
| Airport | Almaty International Airport (UAAA) |
Arrival
| Time | 2026-04-23 14:42 |
|---|---|
| Airport | Ürümqi Tianshan International Airport (ZWWW) |
| Time | Latitude | Longitude | Altitude | Speed | Heading |
|---|---|---|---|---|---|
| 2026-04-23 12:23 | 43.34871 | 77.01781 | 2202 ft | 0 kts | 5° |
| 2026-04-23 12:50 | 43.34863 | 77.01781 | 2229 ft | 4 kts | 11° |
| 2026-04-23 12:50 | 43.34839 | 77.01768 | 2231 ft | 4 kts | 40° |
| 2026-04-23 12:50 | 43.34822 | 77.01742 | 2231 ft | 4 kts | 64° |
| 2026-04-23 12:51 | 43.34814 | 77.01707 | 2224 ft | 4 kts | 85° |
| 2026-04-23 12:51 | 43.34813 | 77.01690 | 2225 ft | 0 kts | 94° |
| 2026-04-23 12:55 | 43.34812 | 77.01706 | 2224 ft | 4 kts | 94° |
| 2026-04-23 12:55 | 43.34809 | 77.01759 | 2226 ft | 5 kts | 95° |
| 2026-04-23 12:55 | 43.34807 | 77.01797 | 2228 ft | 4 kts | 95° |
| 2026-04-23 12:55 | 43.34804 | 77.01837 | 2229 ft | 5 kts | 95° |
| 2026-04-23 12:56 | 43.34801 | 77.01897 | 2229 ft | 8 kts | 94° |
| 2026-04-23 12:56 | 43.34798 | 77.01981 | 2229 ft | 10 kts | 93° |
| 2026-04-23 12:56 | 43.34793 | 77.02089 | 2229 ft | 13 kts | 93° |
| 2026-04-23 12:56 | 43.34786 | 77.02218 | 2224 ft | 14 kts | 94° |
| 2026-04-23 12:57 | 43.34780 | 77.02337 | 2229 ft | 11 kts | 94° |
| 2026-04-23 12:57 | 43.34776 | 77.02428 | 2229 ft | 8 kts | 94° |
| 2026-04-23 12:57 | 43.34772 | 77.02500 | 2226 ft | 9 kts | 94° |
| 2026-04-23 12:57 | 43.34782 | 77.02596 | 2226 ft | 12 kts | 67° |
| 2026-04-23 12:58 | 43.34829 | 77.02705 | 2227 ft | 15 kts | 57° |
| 2026-04-23 12:58 | 43.34889 | 77.02833 | 2226 ft | 17 kts | 57° |
| 2026-04-23 12:58 | 43.34959 | 77.02968 | 2226 ft | 18 kts | 56° |
| 2026-04-23 12:58 | 43.35028 | 77.03107 | 2225 ft | 15 kts | 55° |
| 2026-04-23 12:59 | 43.35073 | 77.03197 | 2227 ft | 8 kts | 56° |
| 2026-04-23 12:59 | 43.35101 | 77.03256 | 2226 ft | 7 kts | 56° |
| 2026-04-23 12:59 | 43.35128 | 77.03311 | 2227 ft | 7 kts | 56° |
| 2026-04-23 12:59 | 43.35177 | 77.03406 | 2226 ft | 17 kts | 54° |
| 2026-04-23 13:00 | 43.35260 | 77.03569 | 2227 ft | 22 kts | 55° |
| 2026-04-23 13:00 | 43.35342 | 77.03738 | 2224 ft | 21 kts | 57° |
| 2026-04-23 13:00 | 43.35423 | 77.03902 | 2225 ft | 21 kts | 56° |
| 2026-04-23 13:00 | 43.35499 | 77.04057 | 2224 ft | 19 kts | 56° |
| 2026-04-23 13:01 | 43.35571 | 77.04200 | 2224 ft | 18 kts | 55° |
| 2026-04-23 13:01 | 43.35635 | 77.04332 | 2224 ft | 16 kts | 56° |
| 2026-04-23 13:01 | 43.35694 | 77.04451 | 2224 ft | 15 kts | 55° |
| 2026-04-23 13:01 | 43.35752 | 77.04566 | 2224 ft | 14 kts | 56° |
| 2026-04-23 13:02 | 43.35805 | 77.04674 | 2226 ft | 13 kts | 56° |
| 2026-04-23 13:02 | 43.35858 | 77.04783 | 2222 ft | 14 kts | 56° |
| 2026-04-23 13:02 | 43.35911 | 77.04890 | 2222 ft | 13 kts | 56° |
| 2026-04-23 13:02 | 43.35960 | 77.04990 | 2222 ft | 12 kts | 56° |
| 2026-04-23 13:03 | 43.35973 | 77.05072 | 2226 ft | 7 kts | 119° |
| 2026-04-23 13:03 | 43.35936 | 77.05111 | 2226 ft | 6 kts | 144° |
| 2026-04-23 13:03 | 43.35905 | 77.05141 | 2226 ft | 7 kts | 146° |
| 2026-04-23 13:03 | 43.35860 | 77.05183 | 2228 ft | 6 kts | 146° |
| 2026-04-23 13:04 | 43.35835 | 77.05192 | 2227 ft | 5 kts | 189° |
| 2026-04-23 13:04 | 43.35806 | 77.05144 | 2229 ft | 6 kts | 234° |
| 2026-04-23 13:04 | 43.35771 | 77.05072 | 2228 ft | 29 kts | 236° |
| 2026-04-23 13:04 | 43.35529 | 77.04580 | 2227 ft | 93 kts | 236° |
| 2026-04-23 13:05 | 43.35065 | 77.03641 | 2229 ft | 143 kts | 236° |
| 2026-04-23 13:05 | 43.34424 | 77.02339 | 2312 ft | 179 kts | 236° |
| 2026-04-23 13:05 | 43.33752 | 77.00952 | 3057 ft | 171 kts | 239° |
| 2026-04-23 13:05 | 43.33092 | 76.99518 | 3513 ft | 186 kts | 240° |
| 2026-04-23 13:06 | 43.31705 | 76.96310 | 4362 ft | 201 kts | 242° |
| 2026-04-23 13:06 | 43.31033 | 76.94562 | 4471 ft | 215 kts | 258° |
| 2026-04-23 13:06 | 43.31207 | 76.92532 | 4709 ft | 223 kts | 301° |
| 2026-04-23 13:07 | 43.32339 | 76.91026 | 5105 ft | 236 kts | 326° |
| 2026-04-23 13:07 | 43.33837 | 76.89930 | 5442 ft | 253 kts | 332° |
| 2026-04-23 13:07 | 43.35451 | 76.88911 | 5923 ft | 261 kts | 333° |
| 2026-04-23 13:07 | 43.37107 | 76.87836 | 6540 ft | 264 kts | 332° |
| 2026-04-23 13:08 | 43.38744 | 76.86689 | 7150 ft | 266 kts | 330° |
| 2026-04-23 13:08 | 43.40382 | 76.85461 | 7704 ft | 269 kts | 329° |
| 2026-04-23 13:08 | 43.42021 | 76.84174 | 8254 ft | 273 kts | 328° |
| 2026-04-23 13:08 | 43.43786 | 76.83166 | 8796 ft | 279 kts | 349° |
| 2026-04-23 13:09 | 43.45730 | 76.83290 | 9350 ft | 286 kts | 15° |
| 2026-04-23 13:09 | 43.47464 | 76.84653 | 9859 ft | 293 kts | 44° |
| 2026-04-23 13:09 | 43.48708 | 76.86902 | 10291 ft | 301 kts | 55° |
| 2026-04-23 13:09 | 43.49890 | 76.89324 | 10485 ft | 316 kts | 55° |
| 2026-04-23 13:10 | 43.51139 | 76.91914 | 10657 ft | 332 kts | 56° |
| 2026-04-23 13:10 | 43.52444 | 76.94634 | 10800 ft | 347 kts | 56° |
| 2026-04-23 13:10 | 43.53806 | 76.97470 | 10951 ft | 361 kts | 56° |
| 2026-04-23 13:10 | 43.55208 | 77.00376 | 11327 ft | 366 kts | 56° |
| 2026-04-23 13:11 | 43.56545 | 77.03394 | 11810 ft | 369 kts | 64° |
| 2026-04-23 13:11 | 43.57453 | 77.06704 | 12247 ft | 371 kts | 76° |
| 2026-04-23 13:11 | 43.57860 | 77.10221 | 12679 ft | 372 kts | 88° |
| 2026-04-23 13:11 | 43.57877 | 77.13641 | 13104 ft | 374 kts | 91° |
| 2026-04-23 13:12 | 43.57874 | 77.17343 | 13547 ft | 377 kts | 91° |
| 2026-04-23 13:12 | 43.57879 | 77.20972 | 13962 ft | 380 kts | 91° |
| 2026-04-23 13:12 | 43.57889 | 77.24625 | 14312 ft | 382 kts | 91° |
| 2026-04-23 13:12 | 43.57898 | 77.28302 | 14650 ft | 386 kts | 91° |
| 2026-04-23 13:13 | 43.57904 | 77.32021 | 14983 ft | 389 kts | 91° |
| 2026-04-23 13:13 | 43.57908 | 77.35770 | 15300 ft | 392 kts | 91° |
| 2026-04-23 13:13 | 43.57912 | 77.39552 | 15618 ft | 396 kts | 91° |
| 2026-04-23 13:13 | 43.57915 | 77.43360 | 15946 ft | 399 kts | 91° |
| 2026-04-23 13:14 | 43.57919 | 77.47202 | 16275 ft | 402 kts | 91° |
| 2026-04-23 13:14 | 43.57919 | 77.51075 | 16608 ft | 405 kts | 91° |
| 2026-04-23 13:14 | 43.57913 | 77.54974 | 16955 ft | 408 kts | 91° |
| 2026-04-23 13:14 | 43.57905 | 77.58895 | 17287 ft | 411 kts | 91° |
| 2026-04-23 13:15 | 43.57897 | 77.62851 | 17627 ft | 414 kts | 91° |
| 2026-04-23 13:15 | 43.57890 | 77.66827 | 17960 ft | 416 kts | 91° |
| 2026-04-23 13:15 | 43.57884 | 77.70782 | 18288 ft | 419 kts | 91° |
| 2026-04-23 13:15 | 43.57875 | 77.74820 | 18575 ft | 422 kts | 91° |
| 2026-04-23 13:16 | 43.57863 | 77.78872 | 18873 ft | 425 kts | 92° |
| 2026-04-23 13:16 | 43.57836 | 77.82960 | 19165 ft | 427 kts | 92° |
| 2026-04-23 13:16 | 43.57782 | 77.87081 | 19459 ft | 430 kts | 93° |
| 2026-04-23 13:16 | 43.57714 | 77.91214 | 19743 ft | 432 kts | 93° |
| 2026-04-23 13:17 | 43.57638 | 77.95366 | 20038 ft | 434 kts | 93° |
| 2026-04-23 13:17 | 43.57560 | 77.99544 | 20314 ft | 437 kts | 93° |
| 2026-04-23 13:17 | 43.57484 | 78.03684 | 20586 ft | 439 kts | 93° |
| 2026-04-23 13:17 | 43.57411 | 78.07906 | 20841 ft | 441 kts | 93° |
| 2026-04-23 13:18 | 43.57344 | 78.12146 | 21100 ft | 443 kts | 93° |
| 2026-04-23 13:18 | 43.57278 | 78.16409 | 21339 ft | 446 kts | 93° |
| 2026-04-23 13:18 | 43.57209 | 78.20696 | 21584 ft | 448 kts | 93° |
| 2026-04-23 13:18 | 43.57137 | 78.24995 | 21824 ft | 450 kts | 93° |
| 2026-04-23 13:19 | 43.57060 | 78.29323 | 22065 ft | 452 kts | 93° |
| 2026-04-23 13:19 | 43.56980 | 78.33665 | 22294 ft | 454 kts | 93° |
| 2026-04-23 13:19 | 43.56897 | 78.38034 | 22522 ft | 456 kts | 93° |
| 2026-04-23 13:19 | 43.56812 | 78.42411 | 22753 ft | 459 kts | 93° |
| 2026-04-23 13:20 | 43.56724 | 78.46828 | 22982 ft | 461 kts | 93° |
| 2026-04-23 13:20 | 43.56634 | 78.51253 | 23207 ft | 463 kts | 93° |
| 2026-04-23 13:20 | 43.56545 | 78.55637 | 23433 ft | 465 kts | 93° |
| 2026-04-23 13:20 | 43.56455 | 78.60099 | 23639 ft | 467 kts | 94° |
| 2026-04-23 13:21 | 43.56362 | 78.64590 | 23826 ft | 469 kts | 94° |
| 2026-04-23 13:21 | 43.56267 | 78.69089 | 24018 ft | 471 kts | 94° |
| 2026-04-23 13:21 | 43.56168 | 78.73617 | 24202 ft | 473 kts | 94° |
| 2026-04-23 13:21 | 43.56066 | 78.78160 | 24392 ft | 475 kts | 94° |
| 2026-04-23 13:22 | 43.55961 | 78.82718 | 24587 ft | 476 kts | 94° |
| 2026-04-23 13:22 | 43.55854 | 78.87295 | 24761 ft | 478 kts | 94° |
| 2026-04-23 13:22 | 43.55743 | 78.91892 | 24946 ft | 480 kts | 94° |
| 2026-04-23 13:22 | 43.55633 | 78.96501 | 25133 ft | 481 kts | 94° |
| 2026-04-23 13:23 | 43.55524 | 79.01122 | 25317 ft | 483 kts | 94° |
| 2026-04-23 13:23 | 43.55414 | 79.05758 | 25506 ft | 485 kts | 94° |
| 2026-04-23 13:23 | 43.55302 | 79.10406 | 25701 ft | 486 kts | 94° |
| 2026-04-23 13:23 | 43.55184 | 79.15070 | 25855 ft | 488 kts | 94° |
| 2026-04-23 13:24 | 43.55060 | 79.19760 | 26033 ft | 490 kts | 94° |
| 2026-04-23 13:24 | 43.54933 | 79.24452 | 26203 ft | 491 kts | 94° |
| 2026-04-23 13:24 | 43.54805 | 79.29106 | 26386 ft | 493 kts | 94° |
| 2026-04-23 13:24 | 43.54673 | 79.33837 | 26564 ft | 495 kts | 94° |
| 2026-04-23 13:25 | 43.54544 | 79.38579 | 26735 ft | 496 kts | 94° |
| 2026-04-23 13:25 | 43.54413 | 79.43335 | 26956 ft | 497 kts | 94° |
| 2026-04-23 13:25 | 43.54279 | 79.48095 | 27225 ft | 496 kts | 94° |
| 2026-04-23 13:25 | 43.54144 | 79.52856 | 27474 ft | 496 kts | 94° |
| 2026-04-23 13:26 | 43.54008 | 79.57614 | 27721 ft | 496 kts | 94° |
| 2026-04-23 13:26 | 43.53871 | 79.62367 | 27967 ft | 496 kts | 94° |
| 2026-04-23 13:26 | 43.53733 | 79.67119 | 28217 ft | 496 kts | 94° |
| 2026-04-23 13:26 | 43.53591 | 79.71813 | 28459 ft | 496 kts | 94° |
| 2026-04-23 13:27 | 43.53440 | 79.76561 | 28701 ft | 496 kts | 94° |
| 2026-04-23 13:27 | 43.53288 | 79.81317 | 28946 ft | 497 kts | 94° |
| 2026-04-23 13:27 | 43.53139 | 79.86069 | 29198 ft | 497 kts | 94° |
| 2026-04-23 13:27 | 43.52990 | 79.90823 | 29448 ft | 497 kts | 94° |
| 2026-04-23 13:28 | 43.52837 | 79.95580 | 29713 ft | 497 kts | 94° |
| 2026-04-23 13:28 | 43.52677 | 80.00334 | 29967 ft | 497 kts | 94° |
| 2026-04-23 13:28 | 43.52514 | 80.05087 | 30194 ft | 497 kts | 94° |
| 2026-04-23 13:28 | 43.52350 | 80.09843 | 30425 ft | 496 kts | 94° |
| 2026-04-23 13:29 | 43.52190 | 80.14528 | 30656 ft | 496 kts | 94° |
| 2026-04-23 13:29 | 43.52029 | 80.19277 | 30877 ft | 496 kts | 94° |
| 2026-04-23 13:29 | 43.51870 | 80.24014 | 30964 ft | 495 kts | 94° |
| 2026-04-23 13:30 | 43.51539 | 80.33484 | 30975 ft | 494 kts | 94° |
| 2026-04-23 13:30 | 43.51196 | 80.42922 | 30983 ft | 493 kts | 94° |
| 2026-04-23 13:31 | 43.50844 | 80.52351 | 30984 ft | 493 kts | 94° |
| 2026-04-23 13:31 | 43.50487 | 80.61791 | 30983 ft | 493 kts | 94° |
| 2026-04-23 13:32 | 43.50117 | 80.71156 | 30986 ft | 493 kts | 94° |
| 2026-04-23 13:32 | 43.49818 | 80.80578 | 30985 ft | 493 kts | 92° |
| 2026-04-23 13:33 | 43.49732 | 80.90023 | 30986 ft | 493 kts | 91° |
| 2026-04-23 13:33 | 43.49674 | 80.99464 | 30988 ft | 493 kts | 91° |
| 2026-04-23 13:34 | 43.49544 | 81.08903 | 30994 ft | 493 kts | 92° |
| 2026-04-23 13:34 | 43.49363 | 81.18359 | 31085 ft | 493 kts | 92° |
| 2026-04-23 13:35 | 43.49184 | 81.27748 | 31075 ft | 495 kts | 92° |
| 2026-04-23 13:35 | 43.49012 | 81.37214 | 31063 ft | 494 kts | 92° |
| 2026-04-23 13:36 | 43.48836 | 81.46675 | 31067 ft | 495 kts | 92° |
| 2026-04-23 13:36 | 43.48648 | 81.56171 | 31065 ft | 496 kts | 92° |
| 2026-04-23 13:37 | 43.48449 | 81.65668 | 31067 ft | 495 kts | 92° |
| 2026-04-23 13:37 | 43.48244 | 81.75148 | 31054 ft | 496 kts | 92° |
| 2026-04-23 13:38 | 43.48030 | 81.84588 | 31047 ft | 497 kts | 92° |
| 2026-04-23 13:38 | 43.47814 | 81.94094 | 31044 ft | 496 kts | 92° |
| 2026-04-23 13:39 | 43.47585 | 82.03596 | 31052 ft | 497 kts | 92° |
| 2026-04-23 13:39 | 43.47345 | 82.13106 | 31046 ft | 497 kts | 92° |
| 2026-04-23 13:40 | 43.47100 | 82.22611 | 31041 ft | 497 kts | 92° |
| 2026-04-23 13:40 | 43.46850 | 82.32134 | 31038 ft | 498 kts | 92° |
| 2026-04-23 13:41 | 43.46598 | 82.41590 | 31037 ft | 498 kts | 92° |
| 2026-04-23 13:41 | 43.46334 | 82.51128 | 31045 ft | 498 kts | 93° |
| 2026-04-23 13:42 | 43.46048 | 82.60679 | 31043 ft | 499 kts | 93° |
| 2026-04-23 13:42 | 43.45757 | 82.70216 | 31046 ft | 499 kts | 93° |
| 2026-04-23 13:43 | 43.45468 | 82.79752 | 31049 ft | 499 kts | 93° |
| 2026-04-23 13:43 | 43.45171 | 82.89294 | 31049 ft | 499 kts | 93° |
| 2026-04-23 13:44 | 43.44867 | 82.98776 | 31057 ft | 499 kts | 93° |
| 2026-04-23 13:44 | 43.44552 | 83.08328 | 31058 ft | 499 kts | 93° |
| 2026-04-23 13:45 | 43.44275 | 83.16248 | 31066 ft | 499 kts | 93° |
| 2026-04-23 13:45 | 43.43880 | 83.27419 | 31071 ft | 500 kts | 93° |
| 2026-04-23 13:46 | 43.43542 | 83.36973 | 31076 ft | 500 kts | 94° |
| 2026-04-23 13:46 | 43.43088 | 83.44892 | 31083 ft | 499 kts | 97° |
| 2026-04-23 13:47 | 43.42209 | 83.54368 | 31090 ft | 499 kts | 99° |
| 2026-04-23 13:47 | 43.41251 | 83.63834 | 31095 ft | 500 kts | 99° |
| 2026-04-23 13:48 | 43.40370 | 83.73327 | 31103 ft | 500 kts | 98° |
| 2026-04-23 13:48 | 43.39542 | 83.82814 | 31106 ft | 500 kts | 98° |
| 2026-04-23 13:49 | 43.38716 | 83.92259 | 31113 ft | 500 kts | 98° |
| 2026-04-23 13:49 | 43.37848 | 84.01815 | 31122 ft | 501 kts | 98° |
| 2026-04-23 13:50 | 43.36964 | 84.11263 | 31132 ft | 501 kts | 98° |
| 2026-04-23 13:50 | 43.36064 | 84.20759 | 31135 ft | 501 kts | 98° |
| 2026-04-23 13:51 | 43.35162 | 84.30265 | 31148 ft | 502 kts | 98° |
| 2026-04-23 13:51 | 43.34263 | 84.39790 | 31151 ft | 502 kts | 98° |
| 2026-04-23 13:52 | 43.33371 | 84.49332 | 31159 ft | 502 kts | 98° |
| 2026-04-23 13:52 | 43.32477 | 84.58776 | 31168 ft | 502 kts | 98° |
| 2026-04-23 13:53 | 43.31561 | 84.68301 | 31169 ft | 503 kts | 98° |
| 2026-04-23 13:53 | 43.30638 | 84.77813 | 31176 ft | 503 kts | 97° |
| 2026-04-23 13:54 | 43.29707 | 84.87336 | 31177 ft | 503 kts | 98° |
| 2026-04-23 13:54 | 43.28765 | 84.96853 | 31179 ft | 503 kts | 98° |
| 2026-04-23 13:55 | 43.27814 | 85.06374 | 31182 ft | 503 kts | 98° |
| 2026-04-23 13:55 | 43.26862 | 85.15896 | 31183 ft | 503 kts | 98° |
| 2026-04-23 13:56 | 43.25896 | 85.25425 | 31188 ft | 504 kts | 98° |
| 2026-04-23 13:56 | 43.24928 | 85.34894 | 31185 ft | 504 kts | 98° |
| 2026-04-23 13:57 | 43.23945 | 85.44418 | 31187 ft | 504 kts | 98° |
| 2026-04-23 13:57 | 43.22951 | 85.53943 | 31180 ft | 504 kts | 98° |
| 2026-04-23 13:58 | 43.21951 | 85.63478 | 30893 ft | 505 kts | 98° |
| 2026-04-23 13:58 | 43.21453 | 85.68222 | 30648 ft | 502 kts | 97° |
| 2026-04-23 13:58 | 43.20952 | 85.72956 | 30413 ft | 501 kts | 97° |
| 2026-04-23 13:58 | 43.20451 | 85.77659 | 30170 ft | 498 kts | 97° |
| 2026-04-23 13:59 | 43.19946 | 85.82347 | 29893 ft | 495 kts | 97° |
| 2026-04-23 13:59 | 43.19467 | 85.87012 | 29615 ft | 493 kts | 94° |
| 2026-04-23 13:59 | 43.19377 | 85.91675 | 29350 ft | 487 kts | 83° |
| 2026-04-23 13:59 | 43.19804 | 85.96238 | 29081 ft | 481 kts | 74° |
| 2026-04-23 14:00 | 43.20353 | 85.99166 | 28906 ft | 475 kts | 68° |
| 2026-04-23 14:00 | 43.22029 | 86.04688 | 28557 ft | 463 kts | 56° |
| 2026-04-23 14:00 | 43.23692 | 86.08409 | 28294 ft | 456 kts | 50° |
| 2026-04-23 14:00 | 43.25438 | 86.12033 | 28034 ft | 453 kts | 51° |
| 2026-04-23 14:01 | 43.27162 | 86.15632 | 27769 ft | 450 kts | 51° |
| 2026-04-23 14:01 | 43.28846 | 86.19241 | 27522 ft | 450 kts | 55° |
| 2026-04-23 14:01 | 43.30223 | 86.23114 | 27264 ft | 453 kts | 63° |
| 2026-04-23 14:01 | 43.31396 | 86.27128 | 27014 ft | 450 kts | 63° |
| 2026-04-23 14:02 | 43.32558 | 86.31107 | 26772 ft | 446 kts | 63° |
| 2026-04-23 14:02 | 43.33714 | 86.35057 | 26526 ft | 445 kts | 63° |
| 2026-04-23 14:02 | 43.34864 | 86.38992 | 26282 ft | 442 kts | 63° |
| 2026-04-23 14:02 | 43.35989 | 86.42849 | 26037 ft | 439 kts | 63° |
| 2026-04-23 14:03 | 43.37121 | 86.46733 | 25796 ft | 435 kts | 63° |
| 2026-04-23 14:03 | 43.38234 | 86.50564 | 25435 ft | 430 kts | 63° |
| 2026-04-23 14:03 | 43.39342 | 86.54374 | 24970 ft | 427 kts | 64° |
| 2026-04-23 14:03 | 43.40435 | 86.58143 | 24544 ft | 422 kts | 64° |
| 2026-04-23 14:04 | 43.41516 | 86.61876 | 24118 ft | 417 kts | 63° |
| 2026-04-23 14:04 | 43.42589 | 86.65578 | 23671 ft | 416 kts | 64° |
| 2026-04-23 14:04 | 43.43818 | 86.69130 | 23199 ft | 408 kts | 54° |
| 2026-04-23 14:04 | 43.45338 | 86.72378 | 22777 ft | 401 kts | 52° |
| 2026-04-23 14:05 | 43.46859 | 86.75576 | 22373 ft | 396 kts | 52° |
| 2026-04-23 14:05 | 43.48356 | 86.78739 | 21931 ft | 392 kts | 53° |
| 2026-04-23 14:05 | 43.49831 | 86.81874 | 21512 ft | 389 kts | 53° |
| 2026-04-23 14:05 | 43.51290 | 86.84984 | 21077 ft | 385 kts | 53° |
| 2026-04-23 14:06 | 43.52739 | 86.88072 | 20649 ft | 382 kts | 54° |
| 2026-04-23 14:06 | 43.54175 | 86.91130 | 20200 ft | 378 kts | 54° |
| 2026-04-23 14:06 | 43.55603 | 86.94166 | 19739 ft | 377 kts | 54° |
| 2026-04-23 14:06 | 43.57019 | 86.97195 | 19287 ft | 375 kts | 54° |
| 2026-04-23 14:07 | 43.58422 | 87.00213 | 18819 ft | 373 kts | 54° |
| 2026-04-23 14:07 | 43.61211 | 87.06229 | 17850 ft | 370 kts | 55° |
| 2026-04-23 14:07 | 43.62590 | 87.09211 | 17388 ft | 367 kts | 55° |
| 2026-04-23 14:08 | 43.63959 | 87.12168 | 16929 ft | 365 kts | 55° |
| 2026-04-23 14:08 | 43.65326 | 87.15104 | 16457 ft | 362 kts | 55° |
| 2026-04-23 14:08 | 43.66690 | 87.18016 | 15987 ft | 360 kts | 55° |
| 2026-04-23 14:08 | 43.68047 | 87.20912 | 15524 ft | 358 kts | 55° |
| 2026-04-23 14:09 | 43.69395 | 87.23794 | 15058 ft | 356 kts | 56° |
| 2026-04-23 14:09 | 43.70738 | 87.26673 | 14591 ft | 354 kts | 56° |
| 2026-04-23 14:09 | 43.72071 | 87.29533 | 14128 ft | 353 kts | 56° |
| 2026-04-23 14:09 | 43.73398 | 87.32379 | 13643 ft | 351 kts | 56° |
| 2026-04-23 14:10 | 43.74714 | 87.35206 | 13165 ft | 348 kts | 56° |
| 2026-04-23 14:10 | 43.76019 | 87.38022 | 12702 ft | 345 kts | 56° |
| 2026-04-23 14:10 | 43.77303 | 87.40808 | 12313 ft | 341 kts | 57° |
| 2026-04-23 14:10 | 43.78558 | 87.43525 | 11877 ft | 338 kts | 57° |
| 2026-04-23 14:11 | 43.79795 | 87.46275 | 11427 ft | 336 kts | 62° |
| 2026-04-23 14:11 | 43.80733 | 87.49224 | 10989 ft | 334 kts | 68° |
| 2026-04-23 14:11 | 43.81610 | 87.52195 | 10557 ft | 332 kts | 68° |
| 2026-04-23 14:11 | 43.82479 | 87.55135 | 10212 ft | 328 kts | 68° |
| 2026-04-23 14:12 | 43.83342 | 87.58046 | 10093 ft | 315 kts | 68° |
| 2026-04-23 14:12 | 43.84161 | 87.60808 | 9969 ft | 304 kts | 69° |
| 2026-04-23 14:12 | 43.84789 | 87.63568 | 9709 ft | 299 kts | 73° |
| 2026-04-23 14:12 | 43.85380 | 87.66319 | 9311 ft | 298 kts | 73° |
| 2026-04-23 14:13 | 43.85964 | 87.69037 | 8936 ft | 297 kts | 73° |
| 2026-04-23 14:13 | 43.86551 | 87.71768 | 8563 ft | 296 kts | 73° |
| 2026-04-23 14:13 | 43.87149 | 87.74554 | 7831 ft | 308 kts | 72° |
| 2026-04-23 14:13 | 43.88078 | 87.77175 | 7490 ft | 299 kts | 46° |
| 2026-04-23 14:14 | 43.89744 | 87.78700 | 7296 ft | 283 kts | 15° |
| 2026-04-23 14:14 | 43.91686 | 87.78756 | 6853 ft | 276 kts | 343° |
| 2026-04-23 14:14 | 43.93428 | 87.77734 | 6471 ft | 270 kts | 327° |
| 2026-04-23 14:14 | 43.94788 | 87.75992 | 5863 ft | 272 kts | 305° |
| 2026-04-23 14:15 | 43.95561 | 87.73653 | 5520 ft | 263 kts | 283° |
| 2026-04-23 14:15 | 43.95669 | 87.71179 | 5226 ft | 254 kts | 262° |
| 2026-04-23 14:15 | 43.95246 | 87.68860 | 4918 ft | 242 kts | 254° |
| 2026-04-23 14:16 | 43.93081 | 87.58590 | 3503 ft | 185 kts | 254° |
| 2026-04-23 14:17 | 43.92732 | 87.56942 | 3251 ft | 168 kts | 254° |
| 2026-04-23 14:17 | 43.92418 | 87.55459 | 3036 ft | 159 kts | 254° |
| 2026-04-23 14:17 | 43.92109 | 87.54001 | 2822 ft | 157 kts | 254° |
| 2026-04-23 14:17 | 43.91802 | 87.52552 | 2608 ft | 156 kts | 255° |
| 2026-04-23 14:18 | 43.91501 | 87.51109 | 2372 ft | 156 kts | 254° |
| 2026-04-23 14:18 | 43.91191 | 87.49663 | 2204 ft | 156 kts | 254° |
| 2026-04-23 14:18 | 43.90891 | 87.48254 | 2150 ft | 143 kts | 254° |
| 2026-04-23 14:18 | 43.90608 | 87.46935 | 2467 ft | 145 kts | 254° |
| 2026-04-23 14:19 | 43.90325 | 87.45566 | 3039 ft | 150 kts | 255° |
| 2026-04-23 14:19 | 43.90042 | 87.44123 | 3532 ft | 160 kts | 256° |
| 2026-04-23 14:19 | 43.89732 | 87.42618 | 4004 ft | 161 kts | 255° |
| 2026-04-23 14:19 | 43.89426 | 87.41131 | 4349 ft | 160 kts | 259° |
| 2026-04-23 14:20 | 43.89154 | 87.39593 | 4543 ft | 171 kts | 256° |
| 2026-04-23 14:20 | 43.89218 | 87.37930 | 4631 ft | 182 kts | 300° |
| 2026-04-23 14:20 | 43.90216 | 87.36905 | 4753 ft | 187 kts | 350° |
| 2026-04-23 14:20 | 43.91461 | 87.37332 | 4903 ft | 192 kts | 38° |
| 2026-04-23 14:21 | 43.92081 | 87.38961 | 5002 ft | 201 kts | 81° |
| 2026-04-23 14:21 | 43.92247 | 87.40989 | 4993 ft | 218 kts | 81° |
| 2026-04-23 14:21 | 43.92502 | 87.43068 | 5009 ft | 219 kts | 79° |
| 2026-04-23 14:21 | 43.92785 | 87.45149 | 5010 ft | 223 kts | 78° |
| 2026-04-23 14:22 | 43.93089 | 87.47376 | 4987 ft | 246 kts | 78° |
| 2026-04-23 14:22 | 43.93402 | 87.49723 | 4994 ft | 249 kts | 79° |
| 2026-04-23 14:22 | 43.93730 | 87.52081 | 5000 ft | 248 kts | 76° |
| 2026-04-23 14:22 | 43.94123 | 87.54412 | 5005 ft | 248 kts | 76° |
| 2026-04-23 14:23 | 43.94531 | 87.56741 | 5010 ft | 248 kts | 75° |
| 2026-04-23 14:23 | 43.94940 | 87.59071 | 5003 ft | 248 kts | 76° |
| 2026-04-23 14:23 | 43.95227 | 87.60604 | 5006 ft | 248 kts | 74° |
| 2026-04-23 14:23 | 43.95690 | 87.62915 | 5008 ft | 248 kts | 73° |
| 2026-04-23 14:24 | 43.96315 | 87.65996 | 5008 ft | 248 kts | 73° |
| 2026-04-23 14:24 | 43.96785 | 87.68303 | 5012 ft | 248 kts | 73° |
| 2026-04-23 14:24 | 43.97140 | 87.69806 | 5014 ft | 248 kts | 69° |
| 2026-04-23 14:24 | 43.97460 | 87.72892 | 5040 ft | 250 kts | 103° |
| 2026-04-23 14:25 | 43.96981 | 87.74367 | 5016 ft | 247 kts | 127° |
| 2026-04-23 14:25 | 43.95145 | 87.75710 | 5006 ft | 227 kts | 182° |
| 2026-04-23 14:25 | 43.94136 | 87.75369 | 5018 ft | 227 kts | 210° |
| 2026-04-23 14:25 | 43.93112 | 87.73781 | 5010 ft | 224 kts | 252° |
| 2026-04-23 14:26 | 43.93090 | 87.71676 | 5024 ft | 221 kts | 286° |
| 2026-04-23 14:26 | 43.93460 | 87.69707 | 4879 ft | 201 kts | 285° |
| 2026-04-23 14:26 | 43.93781 | 87.67881 | 4683 ft | 189 kts | 285° |
| 2026-04-23 14:26 | 43.94077 | 87.66149 | 4480 ft | 180 kts | 281° |
| 2026-04-23 14:27 | 43.94108 | 87.64459 | 4272 ft | 171 kts | 264° |
| 2026-04-23 14:27 | 43.93902 | 87.62830 | 4065 ft | 172 kts | 258° |
| 2026-04-23 14:27 | 43.93614 | 87.61237 | 3856 ft | 166 kts | 256° |
| 2026-04-23 14:27 | 43.93312 | 87.59732 | 3634 ft | 159 kts | 255° |
| 2026-04-23 14:28 | 43.93006 | 87.58257 | 3433 ft | 159 kts | 254° |
| 2026-04-23 14:28 | 43.92697 | 87.56785 | 3217 ft | 159 kts | 254° |
| 2026-04-23 14:28 | 43.92387 | 87.55319 | 3013 ft | 158 kts | 253° |
| 2026-04-23 14:28 | 43.92086 | 87.53862 | 2793 ft | 157 kts | 255° |
| 2026-04-23 14:29 | 43.91782 | 87.52411 | 2566 ft | 156 kts | 253° |
| 2026-04-23 14:29 | 43.91467 | 87.50977 | 2343 ft | 156 kts | 253° |
| 2026-04-23 14:29 | 43.91164 | 87.49536 | 2173 ft | 155 kts | 253° |
| 2026-04-23 14:29 | 43.90850 | 87.48171 | 2174 ft | 141 kts | 250° |
| 2026-04-23 14:30 | 43.90545 | 87.46833 | 2628 ft | 149 kts | 254° |
| 2026-04-23 14:30 | 43.90267 | 87.45401 | 3172 ft | 158 kts | 257° |
| 2026-04-23 14:30 | 43.89972 | 87.43893 | 3681 ft | 166 kts | 255° |
| 2026-04-23 14:31 | 43.89214 | 87.40375 | 4167 ft | 185 kts | 254° |
| 2026-04-23 14:31 | 43.88965 | 87.38549 | 4225 ft | 200 kts | 279° |
| 2026-04-23 14:31 | 43.89513 | 87.36758 | 4395 ft | 210 kts | 308° |
| 2026-04-23 14:31 | 43.90692 | 87.35514 | 4525 ft | 222 kts | 342° |
| 2026-04-23 14:32 | 43.92267 | 87.35475 | 4726 ft | 237 kts | 21° |
| 2026-04-23 14:32 | 43.93604 | 87.36827 | 4975 ft | 244 kts | 56° |
| 2026-04-23 14:32 | 43.94155 | 87.39042 | 5014 ft | 247 kts | 81° |
| 2026-04-23 14:32 | 43.94460 | 87.41391 | 5009 ft | 247 kts | 77° |
| 2026-04-23 14:33 | 43.94840 | 87.43716 | 5003 ft | 247 kts | 76° |
| 2026-04-23 14:33 | 43.95242 | 87.46036 | 5001 ft | 247 kts | 75° |
| 2026-04-23 14:33 | 43.95648 | 87.48354 | 5006 ft | 247 kts | 75° |
| 2026-04-23 14:33 | 43.96054 | 87.50659 | 5008 ft | 247 kts | 75° |
| 2026-04-23 14:34 | 43.96458 | 87.52953 | 5009 ft | 247 kts | 75° |
| 2026-04-23 14:34 | 43.96867 | 87.55274 | 5012 ft | 247 kts | 75° |
| 2026-04-23 14:34 | 43.97275 | 87.57591 | 5005 ft | 247 kts | 75° |
| 2026-04-23 14:34 | 43.97684 | 87.59909 | 5011 ft | 247 kts | 75° |
| 2026-04-23 14:35 | 43.98094 | 87.62226 | 5006 ft | 247 kts | 75° |
| 2026-04-23 14:35 | 43.98503 | 87.64544 | 5012 ft | 247 kts | 75° |
| 2026-04-23 14:35 | 43.98912 | 87.66864 | 5024 ft | 245 kts | 75° |
| 2026-04-23 14:35 | 43.99302 | 87.69079 | 5007 ft | 227 kts | 75° |
| 2026-04-23 14:36 | 43.99672 | 87.71175 | 5009 ft | 223 kts | 75° |
| 2026-04-23 14:36 | 44.00018 | 87.73275 | 5014 ft | 224 kts | 82° |
| 2026-04-23 14:36 | 43.99779 | 87.75380 | 5010 ft | 225 kts | 116° |
| 2026-04-23 14:36 | 43.98671 | 87.76838 | 5010 ft | 226 kts | 159° |
| 2026-04-23 14:37 | 43.97186 | 87.76903 | 5020 ft | 206 kts | 202° |
| 2026-04-23 14:37 | 43.96247 | 87.75658 | 5010 ft | 179 kts | 253° |
| 2026-04-23 14:37 | 43.96215 | 87.74035 | 5053 ft | 171 kts | 277° |
| 2026-04-23 14:37 | 43.96027 | 87.72419 | 5034 ft | 173 kts | 248° |
| 2026-04-23 14:38 | 43.95753 | 87.71387 | 5009 ft | 172 kts | 255° |
| 2026-04-23 14:38 | 43.95431 | 87.69792 | 4959 ft | 172 kts | 255° |
| 2026-04-23 14:38 | 43.95104 | 87.68197 | 4803 ft | 171 kts | 255° |
| 2026-04-23 14:38 | 43.94662 | 87.66079 | 4531 ft | 171 kts | 254° |
| 2026-04-23 14:39 | 43.94441 | 87.65031 | 4378 ft | 171 kts | 254° |
| 2026-04-23 14:39 | 43.94109 | 87.63455 | 4183 ft | 171 kts | 254° |
| 2026-04-23 14:39 | 43.93777 | 87.61881 | 3943 ft | 170 kts | 254° |
| 2026-04-23 14:39 | 43.93455 | 87.60359 | 3721 ft | 159 kts | 254° |
| 2026-04-23 14:40 | 43.93143 | 87.58886 | 3520 ft | 158 kts | 254° |
| 2026-04-23 14:40 | 43.92834 | 87.57424 | 3313 ft | 158 kts | 253° |
| 2026-04-23 14:40 | 43.92524 | 87.55961 | 3106 ft | 158 kts | 253° |
| 2026-04-23 14:40 | 43.92216 | 87.54507 | 2894 ft | 157 kts | 253° |
| 2026-04-23 14:41 | 43.91904 | 87.53035 | 2680 ft | 156 kts | 253° |
| 2026-04-23 14:41 | 43.91597 | 87.51588 | 2474 ft | 156 kts | 254° |
| 2026-04-23 14:41 | 43.91299 | 87.50169 | 2257 ft | 156 kts | 253° |
| 2026-04-23 14:41 | 43.90985 | 87.48721 | 2137 ft | 149 kts | 253° |
| 2026-04-23 14:42 | 43.90740 | 87.47507 | 2134 ft | 110 kts | 250° |
| 2026-04-23 14:42 | 43.90576 | 87.46766 | 2136 ft | 44 kts | 253° |
| 2026-04-23 14:42 | 43.90517 | 87.46580 | 2134 ft | 11 kts | 233° |
| 2026-04-23 14:42 | 43.90499 | 87.46548 | 2136 ft | 3 kts | 232° |
| 2026-04-23 14:43 | 43.90460 | 87.46485 | 2135 ft | 14 kts | 224° |
| 2026-04-23 14:43 | 43.90386 | 87.46395 | 2135 ft | 12 kts | 205° |
| 2026-04-23 14:43 | 43.90336 | 87.46419 | 2135 ft | 7 kts | 117° |
| 2026-04-23 14:43 | 43.90335 | 87.46471 | 2135 ft | 4 kts | 78° |
| 2026-04-23 14:44 | 43.90344 | 87.46520 | 2135 ft | 8 kts | 75° |
| 2026-04-23 14:44 | 43.90365 | 87.46622 | 2133 ft | 14 kts | 73° |
| 2026-04-23 14:44 | 43.90397 | 87.46774 | 2134 ft | 19 kts | 72° |
| 2026-04-23 14:44 | 43.90427 | 87.46909 | 2135 ft | 12 kts | 74° |
| 2026-04-23 14:45 | 43.90425 | 87.46998 | 2136 ft | 8 kts | 129° |
| 2026-04-23 14:45 | 43.90361 | 87.47035 | 2135 ft | 11 kts | 163° |
| 2026-04-23 14:45 | 43.90305 | 87.47061 | 2134 ft | 8 kts | 151° |
| 2026-04-23 14:45 | 43.90290 | 87.47127 | 2135 ft | 5 kts | 76° |
| 2026-04-23 14:46 | 43.90298 | 87.47188 | 2135 ft | 7 kts | 90° |
| 2026-04-23 14:46 | 43.90276 | 87.47218 | 2134 ft | 5 kts | 166° |
| 2026-04-23 14:46 | 43.90228 | 87.47242 | 2135 ft | 6 kts | 163° |
| 2026-04-23 14:46 | 43.90211 | 87.47249 | 2135 ft | 0 kts | 164° |